sensor_id;sensor_type;location;lat;lon;timestamp;pressure;altitude;pressure_sealevel;temperature;humidity
18988;BME280;5494;51.796;10.952;2023-03-23T00:02:40;97911.25;;;13.25;64.28
18988;BME280;5494;51.796;10.952;2023-03-23T00:05:27;97892.03;;;13.26;64.06
18988;BME280;5494;51.796;10.952;2023-03-23T00:08:16;97893.34;;;13.21;64.48
18988;BME280;5494;51.796;10.952;2023-03-23T00:11:04;97902.97;;;13.20;64.65
18988;BME280;5494;51.796;10.952;2023-03-23T00:13:52;97888.09;;;13.21;64.77
18988;BME280;5494;51.796;10.952;2023-03-23T00:16:40;97891.81;;;13.18;64.61
18988;BME280;5494;51.796;10.952;2023-03-23T00:19:28;97888.38;;;13.18;65.07
18988;BME280;5494;51.796;10.952;2023-03-23T00:22:16;97899.53;;;13.20;64.99
18988;BME280;5494;51.796;10.952;2023-03-23T00:25:07;97894.53;;;13.17;64.83
18988;BME280;5494;51.796;10.952;2023-03-23T00:27:55;97903.41;;;13.14;65.45
18988;BME280;5494;51.796;10.952;2023-03-23T00:30:42;97907.69;;;13.26;64.51
18988;BME280;5494;51.796;10.952;2023-03-23T00:33:34;97910.44;;;13.25;64.45
18988;BME280;5494;51.796;10.952;2023-03-23T00:36:24;97902.97;;;13.20;64.84
18988;BME280;5494;51.796;10.952;2023-03-23T00:39:12;97903.75;;;13.10;65.76
18988;BME280;5494;51.796;10.952;2023-03-23T00:42:03;97903.19;;;13.17;65.52
18988;BME280;5494;51.796;10.952;2023-03-23T00:44:51;97906.25;;;13.11;65.58
18988;BME280;5494;51.796;10.952;2023-03-23T00:47:45;97894.53;;;13.06;65.82
18988;BME280;5494;51.796;10.952;2023-03-23T00:50:37;97903.53;;;13.01;66.25
18988;BME280;5494;51.796;10.952;2023-03-23T00:53:24;97882.91;;;12.98;66.40
18988;BME280;5494;51.796;10.952;2023-03-23T00:56:12;97893.91;;;13.02;65.98
18988;BME280;5494;51.796;10.952;2023-03-23T00:59:02;97894.41;;;12.96;66.35
18988;BME280;5494;51.796;10.952;2023-03-23T01:01:50;97914.31;;;12.97;66.62
18988;BME280;5494;51.796;10.952;2023-03-23T01:04:38;97910.03;;;13.07;65.64
18988;BME280;5494;51.796;10.952;2023-03-23T01:07:25;97902.94;;;12.98;66.10
18988;BME280;5494;51.796;10.952;2023-03-23T01:10:14;97905.44;;;12.99;66.37
18988;BME280;5494;51.796;10.952;2023-03-23T01:13:03;97898.66;;;13.08;65.60
18988;BME280;5494;51.796;10.952;2023-03-23T01:15:52;97890.81;;;13.08;65.69
18988;BME280;5494;51.796;10.952;2023-03-23T01:18:40;97892.75;;;13.06;66.07
18988;BME280;5494;51.796;10.952;2023-03-23T01:21:27;97885.16;;;13.03;66.57
18988;BME280;5494;51.796;10.952;2023-03-23T01:24:14;97881.34;;;12.96;66.63
18988;BME280;5494;51.796;10.952;2023-03-23T01:27:01;97890.47;;;13.01;66.50
18988;BME280;5494;51.796;10.952;2023-03-23T01:29:52;97881.34;;;13.07;66.73
18988;BME280;5494;51.796;10.952;2023-03-23T01:32:41;97880.16;;;13.11;66.14
18988;BME280;5494;51.796;10.952;2023-03-23T01:35:28;97880.16;;;13.22;65.27
18988;BME280;5494;51.796;10.952;2023-03-23T01:38:15;97885.31;;;13.13;66.03
18988;BME280;5494;51.796;10.952;2023-03-23T01:41:03;97879.09;;;13.02;66.54
18988;BME280;5494;51.796;10.952;2023-03-23T01:44:04;97886.31;;;13.10;66.41
18988;BME280;5494;51.796;10.952;2023-03-23T01:47:04;97888.97;;;12.99;67.27
18988;BME280;5494;51.796;10.952;2023-03-23T01:49:55;97896.28;;;12.94;68.70
18988;BME280;5494;51.796;10.952;2023-03-23T01:52:43;97901.28;;;12.97;69.18
18988;BME280;5494;51.796;10.952;2023-03-23T01:55:31;97891.31;;;12.91;70.88
18988;BME280;5494;51.796;10.952;2023-03-23T01:58:23;97883.63;;;12.89;73.95
18988;BME280;5494;51.796;10.952;2023-03-23T02:01:15;97886.34;;;12.88;75.76
18988;BME280;5494;51.796;10.952;2023-03-23T02:04:03;97880.88;;;12.80;77.10
18988;BME280;5494;51.796;10.952;2023-03-23T02:06:53;97878.88;;;12.83;80.24
18988;BME280;5494;51.796;10.952;2023-03-23T02:09:43;97902.25;;;12.85;82.14
18988;BME280;5494;51.796;10.952;2023-03-23T02:12:30;97898.56;;;12.76;84.63
18988;BME280;5494;51.796;10.952;2023-03-23T02:15:18;97896.53;;;12.69;86.79
18988;BME280;5494;51.796;10.952;2023-03-23T02:18:15;97893.44;;;12.63;87.21
18988;BME280;5494;51.796;10.952;2023-03-23T02:21:58;97887.84;;;12.46;89.13
18988;BME280;5494;51.796;10.952;2023-03-23T02:25:30;97886.16;;;12.34;90.53
18988;BME280;5494;51.796;10.952;2023-03-23T02:32:10;97869.44;;;12.25;92.58
18988;BME280;5494;51.796;10.952;2023-03-23T02:35:06;97853.34;;;12.20;93.32
18988;BME280;5494;51.796;10.952;2023-03-23T02:38:00;97854.84;;;12.11;94.53
18988;BME280;5494;51.796;10.952;2023-03-23T02:40:50;97852.38;;;12.10;94.94
18988;BME280;5494;51.796;10.952;2023-03-23T02:43:43;97864.78;;;12.06;95.24
18988;BME280;5494;51.796;10.952;2023-03-23T02:46:33;97862.34;;;12.16;94.94
18988;BME280;5494;51.796;10.952;2023-03-23T02:49:25;97860.56;;;12.16;95.02
18988;BME280;5494;51.796;10.952;2023-03-23T02:52:19;97859.38;;;12.09;94.34
18988;BME280;5494;51.796;10.952;2023-03-23T02:55:11;97847.97;;;12.10;95.39
18988;BME280;5494;51.796;10.952;2023-03-23T02:58:00;97843.13;;;12.17;93.44
18988;BME280;5494;51.796;10.952;2023-03-23T03:00:49;97855.69;;;12.12;94.55
18988;BME280;5494;51.796;10.952;2023-03-23T03:03:39;97850.38;;;12.13;94.12
18988;BME280;5494;51.796;10.952;2023-03-23T03:06:36;97841.56;;;12.03;93.93
18988;BME280;5494;51.796;10.952;2023-03-23T03:09:39;97847.75;;;12.02;94.67
18988;BME280;5494;51.796;10.952;2023-03-23T03:12:40;97851.41;;;12.00;94.78
18988;BME280;5494;51.796;10.952;2023-03-23T03:15:36;97850.94;;;12.06;95.24
18988;BME280;5494;51.796;10.952;2023-03-23T03:18:30;97847.28;;;12.08;93.43
18988;BME280;5494;51.796;10.952;2023-03-23T03:21:23;97856.59;;;12.00;94.64
18988;BME280;5494;51.796;10.952;2023-03-23T03:24:18;97849.72;;;11.99;94.97
18988;BME280;5494;51.796;10.952;2023-03-23T03:27:15;97838.84;;;11.94;95.29
18988;BME280;5494;51.796;10.952;2023-03-23T03:30:12;97857.78;;;11.96;95.29
18988;BME280;5494;51.796;10.952;2023-03-23T03:33:03;97854.59;;;12.03;93.56
18988;BME280;5494;51.796;10.952;2023-03-23T03:35:53;97854.38;;;12.06;93.39
18988;BME280;5494;51.796;10.952;2023-03-23T03:38:43;97862.19;;;12.06;93.04
18988;BME280;5494;51.796;10.952;2023-03-23T03:41:31;97857.34;;;12.02;93.91
18988;BME280;5494;51.796;10.952;2023-03-23T03:44:19;97853.44;;;12.07;93.07
18988;BME280;5494;51.796;10.952;2023-03-23T03:47:07;97864.94;;;12.16;92.07
18988;BME280;5494;51.796;10.952;2023-03-23T03:49:54;97866.34;;;12.09;92.46
18988;BME280;5494;51.796;10.952;2023-03-23T03:52:41;97863.59;;;12.10;92.67
18988;BME280;5494;51.796;10.952;2023-03-23T03:55:29;97865.84;;;12.04;93.59
18988;BME280;5494;51.796;10.952;2023-03-23T03:58:22;97847.03;;;12.00;95.12
18988;BME280;5494;51.796;10.952;2023-03-23T04:01:36;97843.13;;;12.06;95.31
18988;BME280;5494;51.796;10.952;2023-03-23T04:04:24;97839.94;;;12.02;96.70
18988;BME280;5494;51.796;10.952;2023-03-23T04:07:11;97854.94;;;11.99;97.89
18988;BME280;5494;51.796;10.952;2023-03-23T04:09:59;97866.53;;;11.95;99.84
18988;BME280;5494;51.796;10.952;2023-03-23T04:12:46;97882.06;;;11.96;100.00
18988;BME280;5494;51.796;10.952;2023-03-23T04:15:52;97860.03;;;11.89;100.00
18988;BME280;5494;51.796;10.952;2023-03-23T04:18:41;97877.16;;;11.92;100.00
18988;BME280;5494;51.796;10.952;2023-03-23T04:21:29;97873.16;;;11.88;100.00
18988;BME280;5494;51.796;10.952;2023-03-23T04:24:17;97884.50;;;11.87;100.00
18988;BME280;5494;51.796;10.952;2023-03-23T04:27:08;97880.44;;;11.82;100.00
18988;BME280;5494;51.796;10.952;2023-03-23T04:29:56;97880.59;;;11.81;100.00
18988;BME280;5494;51.796;10.952;2023-03-23T04:33:03;97883.50;;;11.76;100.00
18988;BME280;5494;51.796;10.952;2023-03-23T04:35:53;97890.78;;;11.71;100.00
18988;BME280;5494;51.796;10.952;2023-03-23T04:39:03;97878.81;;;11.69;100.00
18988;BME280;5494;51.796;10.952;2023-03-23T04:41:54;97877.78;;;11.71;100.00
18988;BME280;5494;51.796;10.952;2023-03-23T04:44:45;97890.06;;;11.69;100.00
18988;BME280;5494;51.796;10.952;2023-03-23T04:47:41;97887.22;;;11.61;100.00
18988;BME280;5494;51.796;10.952;2023-03-23T04:50:41;97894.06;;;11.62;100.00
18988;BME280;5494;51.796;10.952;2023-03-23T04:53:38;97893.75;;;11.67;100.00
18988;BME280;5494;51.796;10.952;2023-03-23T04:56:26;97889.47;;;11.66;100.00
18988;BME280;5494;51.796;10.952;2023-03-23T04:59:15;97892.63;;;11.58;100.00
18988;BME280;5494;51.796;10.952;2023-03-23T05:02:13;97899.00;;;11.54;100.00
18988;BME280;5494;51.796;10.952;2023-03-23T05:05:05;97905.75;;;11.57;100.00
18988;BME280;5494;51.796;10.952;2023-03-23T05:07:52;97904.41;;;11.51;100.00
18988;BME280;5494;51.796;10.952;2023-03-23T05:10:50;97909.53;;;11.53;100.00
18988;BME280;5494;51.796;10.952;2023-03-23T05:13:41;97911.78;;;11.57;100.00
18988;BME280;5494;51.796;10.952;2023-03-23T05:16:31;97922.28;;;11.56;100.00
18988;BME280;5494;51.796;10.952;2023-03-23T05:19:18;97932.22;;;11.51;100.00
18988;BME280;5494;51.796;10.952;2023-03-23T05:22:06;97924.91;;;11.56;100.00
18988;BME280;5494;51.796;10.952;2023-03-23T05:25:06;97919.94;;;11.53;100.00
18988;BME280;5494;51.796;10.952;2023-03-23T05:27:59;97924.50;;;11.49;100.00
18988;BME280;5494;51.796;10.952;2023-03-23T05:31:07;97919.59;;;11.33;100.00
18988;BME280;5494;51.796;10.952;2023-03-23T05:33:54;97916.66;;;11.38;100.00
18988;BME280;5494;51.796;10.952;2023-03-23T05:36:50;97907.28;;;11.35;100.00
18988;BME280;5494;51.796;10.952;2023-03-23T05:39:46;97903.84;;;11.35;100.00
18988;BME280;5494;51.796;10.952;2023-03-23T05:42:53;97911.44;;;11.38;100.00
18988;BME280;5494;51.796;10.952;2023-03-23T05:45:52;97910.81;;;11.34;100.00
18988;BME280;5494;51.796;10.952;2023-03-23T05:48:39;97918.94;;;11.30;100.00
18988;BME280;5494;51.796;10.952;2023-03-23T05:51:31;97912.09;;;11.29;100.00
18988;BME280;5494;51.796;10.952;2023-03-23T05:54:19;97907.72;;;11.29;100.00
18988;BME280;5494;51.796;10.952;2023-03-23T05:57:08;97895.25;;;11.22;100.00
18988;BME280;5494;51.796;10.952;2023-03-23T06:00:02;97895.13;;;11.23;100.00
18988;BME280;5494;51.796;10.952;2023-03-23T06:03:02;97892.03;;;11.18;100.00
18988;BME280;5494;51.796;10.952;2023-03-23T06:06:10;97878.31;;;11.16;100.00
18988;BME280;5494;51.796;10.952;2023-03-23T06:09:09;97863.72;;;11.14;100.00
18988;BME280;5494;51.796;10.952;2023-03-23T06:12:14;97852.78;;;11.21;100.00
18988;BME280;5494;51.796;10.952;2023-03-23T06:15:24;97864.41;;;11.28;100.00
18988;BME280;5494;51.796;10.952;2023-03-23T06:18:46;97860.09;;;11.16;100.00
18988;BME280;5494;51.796;10.952;2023-03-23T06:21:39;97851.75;;;11.24;100.00
18988;BME280;5494;51.796;10.952;2023-03-23T06:24:59;97846.22;;;11.28;100.00
18988;BME280;5494;51.796;10.952;2023-03-23T06:27:54;97850.28;;;11.32;100.00
18988;BME280;5494;51.796;10.952;2023-03-23T06:30:42;97846.72;;;11.33;100.00
18988;BME280;5494;51.796;10.952;2023-03-23T06:33:30;97846.38;;;11.38;100.00
18988;BME280;5494;51.796;10.952;2023-03-23T06:36:37;97860.81;;;11.42;100.00
18988;BME280;5494;51.796;10.952;2023-03-23T06:39:36;97873.41;;;11.48;100.00
18988;BME280;5494;51.796;10.952;2023-03-23T06:56:11;97878.19;;;11.78;100.00
18988;BME280;5494;51.796;10.952;2023-03-23T07:04:10;97887.22;;;11.85;100.00
18988;BME280;5494;51.796;10.952;2023-03-23T07:07:09;97884.41;;;11.88;100.00
18988;BME280;5494;51.796;10.952;2023-03-23T07:10:09;97870.47;;;12.00;100.00
18988;BME280;5494;51.796;10.952;2023-03-23T07:12:59;97870.34;;;12.02;100.00
18988;BME280;5494;51.796;10.952;2023-03-23T07:15:49;97865.25;;;12.00;100.00
18988;BME280;5494;51.796;10.952;2023-03-23T07:18:38;97871.78;;;12.06;100.00
18988;BME280;5494;51.796;10.952;2023-03-23T07:21:26;97870.94;;;12.05;100.00
18988;BME280;5494;51.796;10.952;2023-03-23T07:24:14;97868.00;;;12.10;100.00
18988;BME280;5494;51.796;10.952;2023-03-23T07:27:14;97870.63;;;12.21;100.00
18988;BME280;5494;51.796;10.952;2023-03-23T07:30:05;97872.31;;;12.22;100.00
18988;BME280;5494;51.796;10.952;2023-03-23T07:32:53;97871.84;;;12.28;100.00
18988;BME280;5494;51.796;10.952;2023-03-23T07:35:41;97877.78;;;12.41;100.00
18988;BME280;5494;51.796;10.952;2023-03-23T07:38:33;97885.97;;;12.59;100.00
18988;BME280;5494;51.796;10.952;2023-03-23T07:41:21;97891.44;;;12.56;100.00
18988;BME280;5494;51.796;10.952;2023-03-23T07:44:10;97895.47;;;12.71;100.00
18988;BME280;5494;51.796;10.952;2023-03-23T07:47:02;97891.78;;;12.62;100.00
18988;BME280;5494;51.796;10.952;2023-03-23T07:49:52;97895.56;;;12.58;100.00
18988;BME280;5494;51.796;10.952;2023-03-23T07:52:54;97887.63;;;12.60;100.00
18988;BME280;5494;51.796;10.952;2023-03-23T07:55:42;97888.94;;;12.66;100.00
18988;BME280;5494;51.796;10.952;2023-03-23T07:58:56;97897.59;;;12.66;100.00
18988;BME280;5494;51.796;10.952;2023-03-23T08:01:44;97904.59;;;12.77;100.00
18988;BME280;5494;51.796;10.952;2023-03-23T08:04:52;97899.13;;;12.80;100.00
18988;BME280;5494;51.796;10.952;2023-03-23T16:21:22;97975.41;;;15.19;69.54
18988;BME280;5494;51.796;10.952;2023-03-23T16:24:11;97980.44;;;15.11;69.72
18988;BME280;5494;51.796;10.952;2023-03-23T16:27:03;97973.50;;;15.01;70.25
18988;BME280;5494;51.796;10.952;2023-03-23T16:29:53;97982.06;;;15.03;70.30
18988;BME280;5494;51.796;10.952;2023-03-23T16:32:51;97977.94;;;15.10;70.02
18988;BME280;5494;51.796;10.952;2023-03-23T16:35:42;97964.63;;;15.13;70.39
18988;BME280;5494;51.796;10.952;2023-03-23T16:38:33;97967.75;;;15.07;70.29
18988;BME280;5494;51.796;10.952;2023-03-23T16:41:37;97973.00;;;15.07;70.63
18988;BME280;5494;51.796;10.952;2023-03-23T16:44:32;97978.22;;;15.07;70.29
18988;BME280;5494;51.796;10.952;2023-03-23T16:47:21;97982.56;;;14.96;70.33
18988;BME280;5494;51.796;10.952;2023-03-23T16:50:14;97988.56;;;14.87;70.97
18988;BME280;5494;51.796;10.952;2023-03-23T16:53:08;97979.41;;;14.93;71.17
18988;BME280;5494;51.796;10.952;2023-03-23T16:55:58;97987.50;;;14.90;71.23
18988;BME280;5494;51.796;10.952;2023-03-23T16:58:48;97977.28;;;14.87;73.74
18988;BME280;5494;51.796;10.952;2023-03-23T17:01:37;97986.09;;;14.86;74.39
18988;BME280;5494;51.796;10.952;2023-03-23T17:04:27;97991.66;;;14.92;73.27
18988;BME280;5494;51.796;10.952;2023-03-23T17:07:16;97981.25;;;14.81;73.72
18988;BME280;5494;51.796;10.952;2023-03-23T17:10:09;97981.44;;;14.69;77.51
18988;BME280;5494;51.796;10.952;2023-03-23T17:13:02;97982.03;;;14.51;74.05
18988;BME280;5494;51.796;10.952;2023-03-23T17:15:55;97984.50;;;14.53;73.42
18988;BME280;5494;51.796;10.952;2023-03-23T17:18:45;97984.16;;;14.46;73.72
18988;BME280;5494;51.796;10.952;2023-03-23T17:21:35;97968.16;;;14.40;73.99
18988;BME280;5494;51.796;10.952;2023-03-23T17:24:28;97951.78;;;14.38;73.65
18988;BME280;5494;51.796;10.952;2023-03-23T17:27:20;97976.72;;;14.42;73.23
18988;BME280;5494;51.796;10.952;2023-03-23T17:30:11;97978.50;;;14.41;72.46
18988;BME280;5494;51.796;10.952;2023-03-23T17:33:00;97976.75;;;14.31;73.11
18988;BME280;5494;51.796;10.952;2023-03-23T17:35:48;97968.44;;;14.26;73.47
18988;BME280;5494;51.796;10.952;2023-03-23T17:38:38;97972.69;;;14.27;73.67
18988;BME280;5494;51.796;10.952;2023-03-23T17:41:29;97972.81;;;14.25;73.58
18988;BME280;5494;51.796;10.952;2023-03-23T17:44:17;97973.88;;;14.34;72.88
18988;BME280;5494;51.796;10.952;2023-03-23T17:47:07;97980.81;;;14.24;73.51
18988;BME280;5494;51.796;10.952;2023-03-23T17:50:05;97981.16;;;14.19;73.21
18988;BME280;5494;51.796;10.952;2023-03-23T17:53:00;97991.84;;;14.27;73.29
18988;BME280;5494;51.796;10.952;2023-03-23T17:55:48;97996.84;;;14.19;73.80
18988;BME280;5494;51.796;10.952;2023-03-23T17:58:36;98007.81;;;14.13;73.56
18988;BME280;5494;51.796;10.952;2023-03-23T18:01:25;98011.38;;;14.12;73.95
18988;BME280;5494;51.796;10.952;2023-03-23T18:04:15;98004.84;;;14.06;74.35
18988;BME280;5494;51.796;10.952;2023-03-23T18:07:04;97993.00;;;14.02;74.59
18988;BME280;5494;51.796;10.952;2023-03-23T18:09:57;98007.72;;;14.03;74.99
18988;BME280;5494;51.796;10.952;2023-03-23T18:12:48;98008.69;;;13.91;75.86
18988;BME280;5494;51.796;10.952;2023-03-23T18:15:37;98004.78;;;13.86;76.36
18988;BME280;5494;51.796;10.952;2023-03-23T18:18:26;98013.22;;;13.89;76.25
18988;BME280;5494;51.796;10.952;2023-03-23T18:21:16;98016.69;;;13.90;76.64
18988;BME280;5494;51.796;10.952;2023-03-23T18:24:05;98004.22;;;13.82;77.85
18988;BME280;5494;51.796;10.952;2023-03-23T18:26:54;98000.63;;;13.83;78.46
18988;BME280;5494;51.796;10.952;2023-03-23T18:29:43;98010.97;;;13.85;78.64
18988;BME280;5494;51.796;10.952;2023-03-23T18:32:34;98000.91;;;13.80;80.21
18988;BME280;5494;51.796;10.952;2023-03-23T18:35:23;98003.47;;;13.91;79.81
18988;BME280;5494;51.796;10.952;2023-03-23T18:38:13;98014.91;;;13.79;80.78
18988;BME280;5494;51.796;10.952;2023-03-23T18:41:05;98018.00;;;13.73;82.51
18988;BME280;5494;51.796;10.952;2023-03-23T18:43:53;98024.16;;;13.72;82.93
18988;BME280;5494;51.796;10.952;2023-03-23T18:46:44;98028.56;;;13.71;84.30
18988;BME280;5494;51.796;10.952;2023-03-23T18:49:32;98033.91;;;13.70;85.17
18988;BME280;5494;51.796;10.952;2023-03-23T18:52:21;98037.50;;;13.69;85.43
18988;BME280;5494;51.796;10.952;2023-03-23T18:55:13;98034.25;;;13.76;85.51
18988;BME280;5494;51.796;10.952;2023-03-23T18:58:01;98042.09;;;13.88;85.35
18988;BME280;5494;51.796;10.952;2023-03-23T19:00:55;98037.19;;;13.83;86.40
18988;BME280;5494;51.796;10.952;2023-03-23T19:03:45;98039.81;;;13.83;86.33
18988;BME280;5494;51.796;10.952;2023-03-23T19:06:33;98036.28;;;13.73;87.71
18988;BME280;5494;51.796;10.952;2023-03-23T19:09:22;98034.25;;;13.88;86.70
18988;BME280;5494;51.796;10.952;2023-03-23T19:12:13;98041.28;;;13.76;88.26
18988;BME280;5494;51.796;10.952;2023-03-23T19:15:02;98047.91;;;13.80;88.17
18988;BME280;5494;51.796;10.952;2023-03-23T19:17:51;98041.97;;;13.78;88.51
18988;BME280;5494;51.796;10.952;2023-03-23T19:20:43;98041.88;;;13.68;89.29
18988;BME280;5494;51.796;10.952;2023-03-23T19:23:53;98042.81;;;13.67;89.31
18988;BME280;5494;51.796;10.952;2023-03-23T19:26:44;98044.34;;;13.81;89.08
18988;BME280;5494;51.796;10.952;2023-03-23T19:29:34;98044.69;;;13.76;89.98
18988;BME280;5494;51.796;10.952;2023-03-23T19:32:22;98038.66;;;13.65;90.70
18988;BME280;5494;51.796;10.952;2023-03-23T19:35:11;98041.97;;;13.78;89.68
18988;BME280;5494;51.796;10.952;2023-03-23T19:37:59;98040.19;;;13.78;89.64
18988;BME280;5494;51.796;10.952;2023-03-23T19:40:51;98036.50;;;13.81;89.29
18988;BME280;5494;51.796;10.952;2023-03-23T19:43:41;98041.72;;;13.70;90.40
18988;BME280;5494;51.796;10.952;2023-03-23T19:46:31;98038.66;;;13.65;91.64
18988;BME280;5494;51.796;10.952;2023-03-23T19:49:20;98038.09;;;13.61;91.97
18988;BME280;5494;51.796;10.952;2023-03-23T19:52:08;98023.59;;;13.68;91.38
18988;BME280;5494;51.796;10.952;2023-03-23T19:55:00;98025.13;;;13.71;90.94
18988;BME280;5494;51.796;10.952;2023-03-23T19:57:50;98013.59;;;13.62;91.14
18988;BME280;5494;51.796;10.952;2023-03-23T20:00:38;98014.00;;;13.47;93.16
18988;BME280;5494;51.796;10.952;2023-03-23T20:03:28;98008.78;;;13.47;93.55
18988;BME280;5494;51.796;10.952;2023-03-23T20:06:17;98005.81;;;13.40;93.45
18988;BME280;5494;51.796;10.952;2023-03-23T20:09:06;98012.56;;;13.43;93.91
18988;BME280;5494;51.796;10.952;2023-03-23T20:11:55;98010.78;;;13.32;94.37
18988;BME280;5494;51.796;10.952;2023-03-23T20:14:43;98003.56;;;13.24;95.09
18988;BME280;5494;51.796;10.952;2023-03-23T20:17:32;98002.81;;;13.11;96.54
18988;BME280;5494;51.796;10.952;2023-03-23T20:20:23;98001.63;;;13.15;95.90
18988;BME280;5494;51.796;10.952;2023-03-23T20:23:12;97999.16;;;13.25;95.64
18988;BME280;5494;51.796;10.952;2023-03-23T20:26:03;98000.13;;;13.13;96.14
18988;BME280;5494;51.796;10.952;2023-03-23T20:28:53;97994.00;;;13.01;97.73
18988;BME280;5494;51.796;10.952;2023-03-23T20:31:41;97989.97;;;13.08;97.03
18988;BME280;5494;51.796;10.952;2023-03-23T20:34:33;97993.53;;;13.07;97.41
18988;BME280;5494;51.796;10.952;2023-03-23T20:37:23;97982.63;;;12.91;98.67
18988;BME280;5494;51.796;10.952;2023-03-23T20:40:12;97983.56;;;12.79;99.09
18988;BME280;5494;51.796;10.952;2023-03-23T20:43:01;97982.34;;;12.72;100.00
18988;BME280;5494;51.796;10.952;2023-03-23T20:45:50;97995.03;;;12.65;100.00
18988;BME280;5494;51.796;10.952;2023-03-23T20:48:39;97985.84;;;12.48;100.00
18988;BME280;5494;51.796;10.952;2023-03-23T20:51:27;97985.44;;;12.31;100.00
18988;BME280;5494;51.796;10.952;2023-03-23T20:54:21;97980.22;;;12.31;100.00
18988;BME280;5494;51.796;10.952;2023-03-23T20:57:10;97985.03;;;12.24;100.00
18988;BME280;5494;51.796;10.952;2023-03-23T20:59:59;97979.81;;;12.24;100.00
18988;BME280;5494;51.796;10.952;2023-03-23T21:02:50;97981.81;;;12.09;100.00
18988;BME280;5494;51.796;10.952;2023-03-23T21:05:40;97981.91;;;12.08;100.00
18988;BME280;5494;51.796;10.952;2023-03-23T21:08:29;97986.63;;;12.03;100.00
18988;BME280;5494;51.796;10.952;2023-03-23T21:11:23;97994.16;;;11.95;100.00
18988;BME280;5494;51.796;10.952;2023-03-23T21:14:12;97992.69;;;11.91;100.00
18988;BME280;5494;51.796;10.952;2023-03-23T21:17:00;97991.38;;;11.85;100.00
18988;BME280;5494;51.796;10.952;2023-03-23T21:19:49;97987.72;;;11.88;100.00
18988;BME280;5494;51.796;10.952;2023-03-23T21:22:38;97991.16;;;11.88;100.00
18988;BME280;5494;51.796;10.952;2023-03-23T21:25:27;97988.75;;;11.85;100.00
18988;BME280;5494;51.796;10.952;2023-03-23T21:28:22;97977.31;;;11.88;100.00
18988;BME280;5494;51.796;10.952;2023-03-23T21:31:12;97987.38;;;11.92;100.00
18988;BME280;5494;51.796;10.952;2023-03-23T21:34:02;97993.63;;;11.90;100.00
18988;BME280;5494;51.796;10.952;2023-03-23T21:36:50;97981.19;;;12.06;100.00
18988;BME280;5494;51.796;10.952;2023-03-23T21:39:39;97976.88;;;11.94;100.00
18988;BME280;5494;51.796;10.952;2023-03-23T21:42:27;97985.81;;;11.90;100.00
18988;BME280;5494;51.796;10.952;2023-03-23T21:45:18;97970.63;;;11.83;100.00
18988;BME280;5494;51.796;10.952;2023-03-23T21:48:08;97960.25;;;11.71;100.00
18988;BME280;5494;51.796;10.952;2023-03-23T21:51:04;97962.75;;;11.72;100.00
18988;BME280;5494;51.796;10.952;2023-03-23T21:53:54;97964.22;;;11.76;100.00
18988;BME280;5494;51.796;10.952;2023-03-23T21:56:43;97964.72;;;11.69;100.00
18988;BME280;5494;51.796;10.952;2023-03-23T21:59:32;97963.41;;;11.63;100.00
18988;BME280;5494;51.796;10.952;2023-03-23T22:02:22;97962.03;;;11.70;100.00
18988;BME280;5494;51.796;10.952;2023-03-23T22:05:11;97959.66;;;11.67;100.00
18988;BME280;5494;51.796;10.952;2023-03-23T22:07:59;97947.06;;;11.61;100.00
18988;BME280;5494;51.796;10.952;2023-03-23T22:10:48;97940.31;;;11.59;100.00
18988;BME280;5494;51.796;10.952;2023-03-23T22:13:48;97932.59;;;11.57;100.00
18988;BME280;5494;51.796;10.952;2023-03-23T22:16:36;97918.22;;;11.64;100.00
18988;BME280;5494;51.796;10.952;2023-03-23T22:19:26;97923.31;;;11.90;100.00
18988;BME280;5494;51.796;10.952;2023-03-23T22:22:14;97910.19;;;11.91;100.00
18988;BME280;5494;51.796;10.952;2023-03-23T22:25:04;97926.91;;;11.89;100.00
18988;BME280;5494;51.796;10.952;2023-03-23T22:27:52;97915.84;;;11.85;100.00
18988;BME280;5494;51.796;10.952;2023-03-23T22:30:41;97912.69;;;11.93;100.00
18988;BME280;5494;51.796;10.952;2023-03-23T22:33:31;97908.81;;;11.98;100.00
18988;BME280;5494;51.796;10.952;2023-03-23T22:36:22;97894.94;;;11.98;100.00
18988;BME280;5494;51.796;10.952;2023-03-23T22:39:11;97898.50;;;11.97;100.00
18988;BME280;5494;51.796;10.952;2023-03-23T22:41:59;97893.28;;;11.97;100.00
18988;BME280;5494;51.796;10.952;2023-03-23T22:44:47;97898.56;;;11.84;100.00
18988;BME280;5494;51.796;10.952;2023-03-23T22:47:36;97892.31;;;11.87;100.00
18988;BME280;5494;51.796;10.952;2023-03-23T22:50:25;97891.28;;;11.89;100.00
18988;BME280;5494;51.796;10.952;2023-03-23T22:53:16;97881.41;;;11.81;100.00
18988;BME280;5494;51.796;10.952;2023-03-23T22:56:06;97882.56;;;11.77;100.00
18988;BME280;5494;51.796;10.952;2023-03-23T22:58:54;97885.06;;;11.79;100.00
18988;BME280;5494;51.796;10.952;2023-03-23T23:01:45;97881.53;;;11.80;100.00
18988;BME280;5494;51.796;10.952;2023-03-23T23:04:34;97882.81;;;11.74;100.00
18988;BME280;5494;51.796;10.952;2023-03-23T23:07:23;97872.25;;;11.76;100.00
18988;BME280;5494;51.796;10.952;2023-03-23T23:10:12;97865.28;;;11.76;100.00
18988;BME280;5494;51.796;10.952;2023-03-23T23:13:01;97865.47;;;11.73;100.00
18988;BME280;5494;51.796;10.952;2023-03-23T23:15:52;97870.91;;;11.70;100.00
18988;BME280;5494;51.796;10.952;2023-03-23T23:18:40;97858.34;;;11.64;100.00
18988;BME280;5494;51.796;10.952;2023-03-23T23:21:28;97847.78;;;11.78;100.00
18988;BME280;5494;51.796;10.952;2023-03-23T23:24:17;97841.53;;;11.81;100.00
18988;BME280;5494;51.796;10.952;2023-03-23T23:27:06;97841.16;;;11.74;100.00
18988;BME280;5494;51.796;10.952;2023-03-23T23:29:55;97844.75;;;11.72;100.00
18988;BME280;5494;51.796;10.952;2023-03-23T23:32:44;97842.94;;;11.85;100.00
18988;BME280;5494;51.796;10.952;2023-03-23T23:35:32;97840.22;;;11.75;100.00
18988;BME280;5494;51.796;10.952;2023-03-23T23:38:20;97840.50;;;11.71;100.00
18988;BME280;5494;51.796;10.952;2023-03-23T23:41:09;97839.91;;;11.67;100.00